createdAt,value
2022-10-23T00:01:15.761Z,100707.13
2022-10-23T00:04:04.558Z,100701.06
2022-10-23T00:06:47.438Z,100701.73
2022-10-23T00:09:29.235Z,100695.27
2022-10-23T00:12:10.922Z,100697.61
2022-10-23T00:14:52.557Z,100699.86
2022-10-23T00:17:35.328Z,100700.94
2022-10-23T00:20:17.530Z,100697.73
2022-10-23T00:22:59.323Z,100698.16
2022-10-23T00:25:40.962Z,100705.48
2022-10-23T00:28:22.704Z,100703.02
2022-10-23T00:31:05.851Z,100709.03
2022-10-23T00:33:48.793Z,100705.30
2022-10-23T00:36:30.544Z,100702.32
2022-10-23T00:39:12.336Z,100694.85
2022-10-23T00:41:54.027Z,100683.25
2022-10-23T00:44:35.718Z,100684.02
2022-10-23T00:47:18.535Z,100677.68
2022-10-23T00:50:01.967Z,100678.54
2022-10-23T00:52:50.928Z,100682.16
2022-10-23T00:55:34.052Z,100679.54
2022-10-23T00:58:17.809Z,100669.00
2022-10-23T01:01:00.635Z,100670.07
2022-10-23T01:03:42.629Z,100668.64
2022-10-23T01:06:51.025Z,100673.33
2022-10-23T01:09:44.697Z,100682.02
2022-10-23T01:12:34.998Z,100685.59
2022-10-23T01:15:42.178Z,100695.71
2022-10-23T01:18:30.391Z,100700.54
2022-10-23T01:21:23.379Z,100697.38
2022-10-23T01:24:37.603Z,100693.83
2022-10-23T01:27:23.521Z,100697.19
2022-10-23T01:30:12.277Z,100698.16
2022-10-23T01:33:09.967Z,100700.13
2022-10-23T01:36:06.970Z,100691.89
2022-10-23T01:42:06.729Z,100686.52
2022-10-23T01:44:57.227Z,100682.30
2022-10-23T01:47:39.961Z,100680.16
2022-10-23T01:50:25.215Z,100675.23
2022-10-23T01:53:13.971Z,100675.97
2022-10-23T01:55:56.803Z,100678.44
2022-10-23T01:58:44.739Z,100680.72
2022-10-23T02:01:29.487Z,100685.59
2022-10-23T02:04:15.699Z,100688.95
2022-10-23T02:06:57.686Z,100694.02
2022-10-23T02:09:39.887Z,100703.09
2022-10-23T02:12:43.492Z,100705.34
2022-10-23T02:15:47.201Z,100703.59
2022-10-23T02:18:41.894Z,100699.80
2022-10-23T02:21:39.459Z,100702.85
2022-10-23T02:24:36.714Z,100707.75
2022-10-23T02:27:28.986Z,100714.54
2022-10-23T02:30:18.117Z,100713.18
2022-10-23T02:33:05.953Z,100713.24
2022-10-23T02:35:48.669Z,100712.63
2022-10-23T02:38:41.490Z,100716.89
2022-10-23T02:41:45.124Z,100717.45
2022-10-23T02:44:59.075Z,100723.29
2022-10-23T02:47:56.123Z,100722.98
2022-10-23T02:50:50.782Z,100721.85
2022-10-23T02:53:48.574Z,100720.57
2022-10-23T02:56:40.312Z,100724.16
2022-10-23T02:59:42.176Z,100720.34
2022-10-23T03:02:49.672Z,100729.02
2022-10-23T03:05:36.077Z,100729.95
2022-10-23T03:08:17.971Z,100730.46
2022-10-23T03:10:59.763Z,100724.30
2022-10-23T03:13:42.683Z,100725.61
2022-10-23T03:16:25.501Z,100731.20
2022-10-23T03:19:09.081Z,100726.94
2022-10-23T03:21:51.237Z,100725.29
2022-10-23T03:24:33.645Z,100718.91
2022-10-23T03:27:16.608Z,100719.38
2022-10-23T03:29:58.361Z,100719.30
2022-10-23T03:32:40.313Z,100713.02
2022-10-23T03:35:22.151Z,100716.96
2022-10-23T03:38:03.840Z,100707.67
2022-10-23T03:40:45.531Z,100702.34
2022-10-23T03:43:27.433Z,100708.02
2022-10-23T03:46:12.707Z,100730.28
2022-10-23T03:48:55.623Z,100734.33
2022-10-23T03:51:37.414Z,100738.57
2022-10-23T03:54:21.665Z,100748.33
2022-10-23T03:57:03.460Z,100747.77
2022-10-23T03:59:45.662Z,100749.09
2022-10-23T04:02:27.482Z,100748.95
2022-10-23T04:05:09.659Z,100749.17
2022-10-23T04:07:52.784Z,100745.66
2022-10-23T04:10:34.575Z,100744.27
2022-10-23T04:13:16.267Z,100743.34
2022-10-23T04:15:57.957Z,100744.86
2022-10-23T04:18:42.924Z,100746.16
2022-10-23T04:21:25.333Z,100743.97
2022-10-23T04:24:07.437Z,100744.70
2022-10-23T04:26:49.125Z,100743.72
2022-10-23T04:29:32.671Z,100746.30
2022-10-23T04:32:14.350Z,100749.25
2022-10-23T04:34:58.804Z,100745.08
2022-10-23T04:37:41.024Z,100744.55
2022-10-23T04:40:23.108Z,100743.08
2022-10-23T04:43:07.769Z,100743.84
2022-10-23T04:45:52.435Z,100744.40
2022-10-23T04:48:35.783Z,100744.65
2022-10-23T04:51:38.339Z,100744.30
2022-10-23T04:54:36.928Z,100740.96
2022-10-23T04:57:35.411Z,100739.67
2022-10-23T05:00:20.793Z,100742.95
2022-10-23T05:03:05.859Z,100747.23
2022-10-23T05:05:56.417Z,100757.17
2022-10-23T05:08:43.650Z,100761.38
2022-10-23T05:11:34.487Z,100762.41
2022-10-23T05:14:22.708Z,100763.35
2022-10-23T05:17:11.782Z,100766.30
2022-10-23T05:19:55.877Z,100767.03
2022-10-23T05:22:40.191Z,100763.87
2022-10-23T05:25:25.262Z,100763.34
2022-10-23T05:28:15.861Z,100765.46
2022-10-23T05:30:59.907Z,100768.94
2022-10-23T05:33:44.144Z,100766.45
2022-10-23T05:36:27.542Z,100763.13
2022-10-23T05:39:11.942Z,100768.47
2022-10-23T05:41:55.172Z,100771.36
2022-10-23T05:44:39.421Z,100772.48
2022-10-23T05:47:53.933Z,100773.71
2022-10-23T05:51:20.397Z,100772.16
2022-10-23T05:54:08.462Z,100776.40
2022-10-23T05:56:56.982Z,100776.80
2022-10-23T05:59:46.590Z,100778.27
2022-10-23T06:02:38.803Z,100782.41
2022-10-23T06:05:25.816Z,100782.27
2022-10-23T06:08:26.377Z,100780.52
2022-10-23T06:11:13.626Z,100779.92
2022-10-23T06:16:44.767Z,100777.14
2022-10-23T06:19:26.862Z,100778.93
2022-10-23T06:22:10.951Z,100778.73
2022-10-23T06:25:01.200Z,100778.30
2022-10-23T06:27:44.646Z,100778.58
2022-10-23T06:30:26.500Z,100777.45
2022-10-23T06:33:08.322Z,100774.65
2022-10-23T06:35:50.319Z,100776.92
2022-10-23T06:38:37.650Z,100776.08
2022-10-23T06:41:21.689Z,100780.88
2022-10-23T06:44:12.117Z,100779.41
2022-10-23T06:46:57.871Z,100779.45
2022-10-23T06:50:15.681Z,100776.52
2022-10-23T06:52:58.833Z,100773.55
2022-10-23T06:55:41.550Z,100776.36
2022-10-23T06:58:24.160Z,100778.66
2022-10-23T07:01:18.728Z,100781.83
2022-10-23T07:04:00.755Z,100780.65
2022-10-23T07:06:43.058Z,100785.02
2022-10-23T07:09:25.055Z,100787.06
2022-10-23T07:12:06.951Z,100780.74
2022-10-23T07:14:56.834Z,100781.61
2022-10-23T07:17:57.673Z,100779.91
2022-10-23T07:20:41.612Z,100783.01
2022-10-23T07:23:23.718Z,100781.13
2022-10-23T07:26:08.485Z,100782.71
2022-10-23T07:28:55.193Z,100784.39
2022-10-23T07:31:37.702Z,100781.27
2022-10-23T07:34:38.539Z,100784.44
2022-10-23T07:37:35.385Z,100781.64
2022-10-23T07:40:19.228Z,100783.45
2022-10-23T07:43:01.225Z,100788.79
2022-10-23T07:45:43.223Z,100793.44
2022-10-23T07:48:32.082Z,100800.52
2022-10-23T07:51:16.335Z,100805.46
2022-10-23T07:54:00.690Z,100805.59
2022-10-23T07:57:17.807Z,100815.34
2022-10-23T08:00:11.931Z,100817.34
2022-10-23T08:02:56.754Z,100815.13
2022-10-23T08:05:39.265Z,100816.55
2022-10-23T08:08:22.698Z,100815.85
2022-10-23T08:11:05.720Z,100819.42
2022-10-23T08:13:57.758Z,100819.31
2022-10-23T08:16:41.500Z,100818.09
2022-10-23T08:19:29.429Z,100814.70
2022-10-23T08:22:12.348Z,100821.69
2022-10-23T08:24:54.669Z,100825.79
2022-10-23T08:27:38.738Z,100826.71
2022-10-23T08:30:20.799Z,100831.31
2022-10-23T08:33:07.303Z,100836.61
2022-10-23T08:35:50.043Z,100839.41
2022-10-23T08:38:40.029Z,100840.27
2022-10-23T08:41:44.215Z,100839.41
2022-10-23T08:44:56.406Z,100839.21
2022-10-23T08:47:41.911Z,100834.20
2022-10-23T08:51:01.695Z,100835.74
2022-10-23T08:54:24.307Z,100837.71
2022-10-23T08:57:19.930Z,100837.60
2022-10-23T09:00:09.221Z,100839.73
2022-10-23T09:02:54.698Z,100845.41
2022-10-23T09:06:01.312Z,100848.80
2022-10-23T09:09:57.392Z,100848.38
2022-10-23T09:12:53.436Z,100841.95
2022-10-23T09:15:42.510Z,100841.66
2022-10-23T09:18:24.919Z,100842.92
2022-10-23T09:21:10.507Z,100839.24
2022-10-23T09:23:52.396Z,100843.06
2022-10-23T09:26:34.394Z,100851.73
2022-10-23T09:29:30.192Z,100856.90
2022-10-23T09:32:12.112Z,100853.02
2022-10-23T09:34:55.650Z,100852.19
2022-10-23T09:37:46.631Z,100853.26
2022-10-23T09:40:36.850Z,100853.11
2022-10-23T09:43:23.418Z,100857.18
2022-10-23T09:46:07.375Z,100863.50
2022-10-23T09:49:00.877Z,100860.84
2022-10-23T09:51:57.811Z,100862.94
2022-10-23T09:54:46.555Z,100863.19
2022-10-23T09:57:43.142Z,100872.77
2022-10-23T10:00:27.872Z,100873.60
2022-10-23T10:03:23.285Z,100869.16
2022-10-23T10:06:29.015Z,100869.89
2022-10-23T10:09:15.897Z,100865.66
2022-10-23T10:12:19.763Z,100861.95
2022-10-23T10:15:07.941Z,100863.31
2022-10-23T10:18:26.048Z,100865.05
2022-10-23T10:21:13.577Z,100860.66
2022-10-23T10:24:06.007Z,100856.73
2022-10-23T10:27:07.376Z,100860.73
2022-10-23T10:29:58.279Z,100857.19
2022-10-23T10:32:59.629Z,100856.46
2022-10-23T10:39:23.020Z,100856.48
2022-10-23T10:42:36.761Z,100853.98
2022-10-23T10:45:20.603Z,100853.98
2022-10-23T10:48:30.350Z,100852.36
2022-10-23T10:51:43.475Z,100848.99
2022-10-23T10:54:34.386Z,100841.24
2022-10-23T10:57:28.943Z,100839.25
2022-10-23T11:00:20.486Z,100841.96
2022-10-23T11:03:25.641Z,100835.41
2022-10-23T11:06:15.320Z,100832.03
2022-10-23T11:09:19.252Z,100836.30
2022-10-23T11:12:02.464Z,100840.73
2022-10-23T11:14:45.436Z,100840.58
2022-10-23T11:17:35.977Z,100842.20
2022-10-23T11:21:39.723Z,100842.46
2022-10-23T11:24:45.405Z,100834.70
2022-10-23T11:27:47.311Z,100832.33
2022-10-23T11:30:59.645Z,100821.50
2022-10-23T11:34:19.710Z,100818.87
2022-10-23T11:37:09.186Z,100811.21
2022-10-23T11:40:09.511Z,100807.23
2022-10-23T11:42:52.257Z,100802.95
2022-10-23T11:45:40.280Z,100801.02
2022-10-23T11:48:36.907Z,100796.57
2022-10-23T11:51:34.679Z,100788.40
2022-10-23T11:54:26.287Z,100792.70
2022-10-23T11:57:10.402Z,100787.69
2022-10-23T11:59:56.030Z,100786.35
2022-10-23T12:02:42.195Z,100779.36
2022-10-23T12:05:37.948Z,100776.63
2022-10-23T12:08:27.142Z,100773.10
2022-10-23T12:11:42.693Z,100767.16
2022-10-23T12:14:26.028Z,100759.80
2022-10-23T12:17:23.184Z,100756.27
2022-10-23T12:20:08.455Z,100748.39
2022-10-23T12:23:21.277Z,100754.61
2022-10-23T12:26:09.904Z,100752.34
2022-10-23T12:29:30.944Z,100754.30
2022-10-23T12:32:52.526Z,100755.68
2022-10-23T12:35:37.335Z,100757.61
2022-10-23T12:38:24.522Z,100756.27
2022-10-23T12:41:13.282Z,100757.93
2022-10-23T12:43:59.199Z,100748.42
2022-10-23T12:46:43.657Z,100739.40
2022-10-23T12:49:28.430Z,100736.86
2022-10-23T12:52:19.122Z,100731.47
2022-10-23T12:55:12.797Z,100724.98
2022-10-23T12:57:56.632Z,100726.31
2022-10-23T13:00:38.836Z,100731.75
2022-10-23T13:03:23.035Z,100731.39
2022-10-23T13:06:05.398Z,100732.21
2022-10-23T13:08:49.029Z,100727.14
2022-10-23T13:11:56.943Z,100727.66
2022-10-23T13:14:44.635Z,100728.27
2022-10-23T13:18:00.366Z,100724.59
2022-10-23T13:20:55.401Z,100718.73
2022-10-23T13:23:40.329Z,100714.60
2022-10-23T13:26:45.411Z,100711.87
2022-10-23T13:29:34.945Z,100708.61
2022-10-23T13:32:30.558Z,100702.77
2022-10-23T13:35:22.489Z,100697.77
2022-10-23T13:38:09.198Z,100693.98
2022-10-23T13:40:58.364Z,100691.83
2022-10-23T13:43:40.976Z,100696.59
2022-10-23T13:46:27.717Z,100698.74
2022-10-23T13:49:09.890Z,100703.64
2022-10-23T13:51:54.946Z,100702.95
2022-10-23T13:54:36.858Z,100704.24
2022-10-23T13:57:18.958Z,100697.73
2022-10-23T14:00:00.849Z,100697.53
2022-10-23T14:02:43.362Z,100700.33
2022-10-23T14:05:25.358Z,100702.31
2022-10-23T14:08:07.355Z,100694.69
2022-10-23T14:10:49.253Z,100689.87
2022-10-23T14:13:32.171Z,100692.77
2022-10-23T14:16:16.199Z,100696.05
2022-10-23T14:18:58.214Z,100690.85
2022-10-23T14:21:40.216Z,100685.98
2022-10-23T14:24:22.215Z,100687.66
2022-10-23T14:27:04.518Z,100681.48
2022-10-23T14:29:46.720Z,100681.04
2022-10-23T14:32:28.718Z,100680.63
2022-10-23T14:35:10.715Z,100675.30
2022-10-23T14:37:52.682Z,100673.25
2022-10-23T14:40:38.877Z,100675.39
2022-10-23T14:43:21.523Z,100673.86
2022-10-23T14:46:18.016Z,100677.58
2022-10-23T14:49:02.305Z,100673.42
2022-10-23T14:51:44.925Z,100666.68
2022-10-23T14:54:28.460Z,100664.67
2022-10-23T14:57:12.403Z,100661.10
2022-10-23T14:59:54.254Z,100661.30
2022-10-23T15:02:36.297Z,100657.08
2022-10-23T15:05:18.807Z,100650.90
2022-10-23T15:08:01.931Z,100648.92
2022-10-23T15:10:43.827Z,100646.35
2022-10-23T15:13:29.055Z,100644.86
2022-10-23T15:16:11.102Z,100648.61
2022-10-23T15:18:53.304Z,100651.88
2022-10-23T15:21:35.301Z,100648.73
2022-10-23T15:24:18.535Z,100649.16
2022-10-23T15:27:02.276Z,100654.75
2022-10-23T15:29:44.880Z,100655.45
2022-10-23T15:32:27.082Z,100650.64
2022-10-23T15:35:09.286Z,100649.55
2022-10-23T15:37:51.386Z,100658.09
2022-10-23T15:40:33.795Z,100662.11
2022-10-23T15:43:16.713Z,100662.77
2022-10-23T15:45:58.609Z,100664.75
2022-10-23T15:48:40.815Z,100663.26
2022-10-23T15:51:23.323Z,100666.30
2022-10-23T15:54:10.774Z,100661.50
2022-10-23T15:56:54.195Z,100656.86
2022-10-23T15:59:36.279Z,100658.19
2022-10-23T16:02:18.243Z,100654.98
2022-10-23T16:05:00.583Z,100650.64
2022-10-23T16:07:42.437Z,100648.27
2022-10-23T16:10:25.194Z,100645.95
2022-10-23T16:13:07.090Z,100644.63
2022-10-23T16:15:49.701Z,100642.17
2022-10-23T16:18:31.802Z,100646.67
2022-10-23T16:21:23.145Z,100649.31
2022-10-23T16:24:07.754Z,100648.92
2022-10-23T16:26:53.425Z,100647.31
2022-10-23T16:32:59.343Z,100648.50
2022-10-23T16:35:41.238Z,100648.99
2022-10-23T16:38:27.795Z,100649.73
2022-10-23T16:41:09.740Z,100648.93
2022-10-23T16:44:10.477Z,100649.56
2022-10-23T16:47:06.197Z,100652.41
2022-10-23T16:49:48.092Z,100655.54
2022-10-23T16:52:30.270Z,100656.94
2022-10-23T16:55:13.730Z,100654.86
2022-10-23T16:57:57.058Z,100652.38
2022-10-23T17:00:39.057Z,100653.17
2022-10-23T17:03:20.949Z,100655.78
2022-10-23T17:06:10.274Z,100654.90
2022-10-23T17:08:55.698Z,100655.44
2022-10-23T17:11:40.118Z,100656.21
2022-10-23T17:14:25.225Z,100653.61
2022-10-23T17:17:09.987Z,100642.73
2022-10-23T17:19:51.985Z,100645.35
2022-10-23T17:22:35.726Z,100643.90
2022-10-23T17:25:17.824Z,100638.84
2022-10-23T17:28:02.814Z,100637.50
2022-10-23T17:30:44.995Z,100640.84
2022-10-23T17:33:26.893Z,100642.96
2022-10-23T17:36:09.716Z,100642.29
2022-10-23T17:38:51.913Z,100641.77
2022-10-23T17:41:34.934Z,100641.89
2022-10-23T17:44:16.727Z,100645.65
2022-10-23T17:46:58.828Z,100645.23
2022-10-23T17:49:42.858Z,100644.05
2022-10-23T17:52:27.636Z,100643.61
2022-10-23T17:55:09.941Z,100638.63
2022-10-23T17:57:51.632Z,100636.19
2022-10-23T18:00:36.810Z,100630.57
2022-10-23T18:03:19.826Z,100632.21
2022-10-23T18:06:15.239Z,100636.21
2022-10-23T18:08:57.546Z,100636.55
2022-10-23T18:11:46.954Z,100637.46
2022-10-23T18:14:30.613Z,100631.94
2022-10-23T18:17:18.083Z,100624.80
2022-10-23T18:20:02.170Z,100609.59
2022-10-23T18:22:45.449Z,100608.27
2022-10-23T18:25:27.482Z,100606.95
2022-10-23T18:28:09.656Z,100602.10
2022-10-23T18:30:56.082Z,100594.70
2022-10-23T18:33:40.366Z,100583.70
2022-10-23T18:36:25.419Z,100584.25
2022-10-23T18:39:11.372Z,100588.54
2022-10-23T18:41:56.406Z,100586.00
2022-10-23T18:44:38.438Z,100580.63
2022-10-23T18:47:20.243Z,100574.58
2022-10-23T18:50:02.349Z,100572.21
2022-10-23T18:52:44.740Z,100568.45
2022-10-23T18:55:26.454Z,100562.98
2022-10-23T18:58:08.738Z,100555.38
2022-10-23T19:00:50.837Z,100548.23
2022-10-23T19:03:33.857Z,100545.80
2022-10-23T19:06:17.894Z,100546.27
2022-10-23T19:08:59.905Z,100539.54
2022-10-23T19:11:43.447Z,100535.59
2022-10-23T19:14:27.995Z,100531.67
2022-10-23T19:17:13.682Z,100529.38
2022-10-23T19:20:06.296Z,100529.28
2022-10-23T19:22:51.335Z,100528.19
2022-10-23T19:25:34.624Z,100532.70
2022-10-23T19:28:16.465Z,100531.23
2022-10-23T19:31:01.842Z,100525.56
2022-10-23T19:33:44.828Z,100525.27
2022-10-23T19:36:27.864Z,100529.60
2022-10-23T19:39:09.530Z,100530.11
2022-10-23T19:41:51.827Z,100534.10
2022-10-23T19:44:33.630Z,100530.62
2022-10-23T19:47:15.525Z,100531.24
2022-10-23T19:49:57.318Z,100528.00
2022-10-23T19:52:39.524Z,100526.34
2022-10-23T19:55:21.232Z,100530.75
2022-10-23T19:58:02.983Z,100532.21
2022-10-23T20:00:44.900Z,100530.19
2022-10-23T20:03:26.592Z,100527.86
2022-10-23T20:06:14.336Z,100527.53
2022-10-23T20:08:56.733Z,100527.01
2022-10-23T20:11:40.207Z,100528.02
2022-10-23T20:14:24.491Z,100529.55
2022-10-23T20:17:11.197Z,100531.81
2022-10-23T20:19:58.804Z,100523.86
2022-10-23T20:22:44.173Z,100521.32
2022-10-23T20:25:29.627Z,100518.33
2022-10-23T20:28:14.369Z,100523.58
2022-10-23T20:30:57.190Z,100519.45
2022-10-23T20:33:41.032Z,100518.49
2022-10-23T20:36:31.324Z,100521.02
2022-10-23T20:39:19.443Z,100513.88
2022-10-23T20:42:02.797Z,100511.31
2022-10-23T20:44:44.614Z,100512.98
2022-10-23T20:47:26.279Z,100510.45
2022-10-23T20:50:08.754Z,100502.77
2022-10-23T20:52:50.952Z,100487.90
2022-10-23T20:55:32.684Z,100482.57
2022-10-23T20:58:14.375Z,100481.14
2022-10-23T21:00:57.483Z,100477.70
2022-10-23T21:03:39.807Z,100476.20
2022-10-23T21:06:21.968Z,100473.55
2022-10-23T21:09:06.194Z,100468.70
2022-10-23T21:11:48.007Z,100465.42
2022-10-23T21:14:29.694Z,100457.80
2022-10-23T21:17:16.666Z,100458.26
2022-10-23T21:19:58.448Z,100467.37
2022-10-23T21:22:40.246Z,100468.02
2022-10-23T21:25:22.036Z,100469.39
2022-10-23T21:28:04.241Z,100470.80
2022-10-23T21:30:45.929Z,100468.73
2022-10-23T21:33:29.156Z,100465.54
2022-10-23T21:36:17.592Z,100462.23
2022-10-23T21:39:01.863Z,100459.73
2022-10-23T21:41:43.651Z,100459.27
2022-10-23T21:44:25.347Z,100455.66
2022-10-23T21:47:07.134Z,100462.08
2022-10-23T21:49:48.832Z,100464.70
2022-10-23T21:52:30.619Z,100463.09
2022-10-23T21:55:12.311Z,100462.29
2022-10-23T21:57:54.309Z,100460.60
2022-10-23T22:00:35.999Z,100455.25
2022-10-23T22:03:17.691Z,100453.55
2022-10-23T22:05:59.381Z,100454.17
2022-10-23T22:08:41.030Z,100448.44
2022-10-23T22:11:23.278Z,100445.34
2022-10-23T22:14:05.067Z,100441.90
2022-10-23T22:16:47.782Z,100440.44
2022-10-23T22:19:29.476Z,100453.73
2022-10-23T22:22:11.266Z,100451.70
2022-10-23T22:24:52.958Z,100429.80
2022-10-23T22:27:34.650Z,100421.30
2022-10-23T22:30:16.446Z,100418.89
2022-10-23T22:32:58.134Z,100410.80
2022-10-23T22:35:39.825Z,100417.66
2022-10-23T22:38:21.515Z,100425.02
2022-10-23T22:41:04.548Z,100424.76
2022-10-23T22:43:46.330Z,100424.14
2022-10-23T22:46:29.353Z,100432.27
2022-10-23T22:49:11.049Z,100434.30
2022-10-23T22:51:52.836Z,100429.13
2022-10-23T22:54:34.628Z,100425.64
2022-10-23T22:57:16.413Z,100425.98
2022-10-23T22:59:58.219Z,100417.96
2022-10-23T23:02:39.907Z,100409.14
2022-10-23T23:05:21.718Z,100402.88
2022-10-23T23:08:03.493Z,100398.87
2022-10-23T23:10:52.829Z,100389.94
2022-10-23T23:13:35.578Z,100391.62
2022-10-23T23:16:29.764Z,100391.52
2022-10-23T23:19:11.557Z,100390.66
2022-10-23T23:21:58.060Z,100394.58
2022-10-23T23:24:39.752Z,100394.24
2022-10-23T23:27:21.543Z,100389.11
2022-10-23T23:30:05.794Z,100395.60
2022-10-23T23:32:48.512Z,100400.77
2022-10-23T23:35:30.406Z,100400.86
2022-10-23T23:38:13.427Z,100405.77
2022-10-23T23:40:55.224Z,100401.39
2022-10-23T23:43:36.920Z,100399.59
2022-10-23T23:46:18.713Z,100395.83
2022-10-23T23:49:00.396Z,100388.04
2022-10-23T23:51:42.395Z,100381.05
2022-10-23T23:54:24.187Z,100375.11
2022-10-23T23:57:06.390Z,100374.42
2022-10-23T23:59:48.183Z,100376.80
